sensor_id;sensor_type;location;lat;lon;timestamp;pressure;altitude;pressure_sealevel;temperature;humidity
71299;BME280;59083;47.974;21.722;2022-10-22T00:00:45;100671.69;;;11.07;67.45
71299;BME280;59083;47.974;21.722;2022-10-22T00:03:46;100678.75;;;11.00;67.85
71299;BME280;59083;47.974;21.722;2022-10-22T00:06:47;100678.31;;;10.97;68.09
71299;BME280;59083;47.974;21.722;2022-10-22T00:09:48;100667.19;;;10.93;68.54
71299;BME280;59083;47.974;21.722;2022-10-22T00:12:50;100671.03;;;10.91;68.70
71299;BME280;59083;47.974;21.722;2022-10-22T00:15:51;100675.53;;;10.90;68.72
71299;BME280;59083;47.974;21.722;2022-10-22T00:18:52;100669.56;;;10.88;68.64
71299;BME280;59083;47.974;21.722;2022-10-22T00:21:53;100661.75;;;10.87;68.37
71299;BME280;59083;47.974;21.722;2022-10-22T00:24:55;100658.88;;;10.88;68.53
71299;BME280;59083;47.974;21.722;2022-10-22T00:27:56;100643.00;;;10.80;68.28
71299;BME280;59083;47.974;21.722;2022-10-22T00:30:59;100658.25;;;10.86;68.15
71299;BME280;59083;47.974;21.722;2022-10-22T00:34:01;100661.22;;;10.91;68.03
71299;BME280;59083;47.974;21.722;2022-10-22T00:37:02;100649.88;;;10.89;67.95
71299;BME280;59083;47.974;21.722;2022-10-22T00:40:04;100643.19;;;10.93;68.23
71299;BME280;59083;47.974;21.722;2022-10-22T00:43:12;100635.19;;;10.93;68.19
71299;BME280;59083;47.974;21.722;2022-10-22T00:46:14;100629.87;;;10.93;68.26
71299;BME280;59083;47.974;21.722;2022-10-22T00:49:15;100616.22;;;10.88;68.31
71299;BME280;59083;47.974;21.722;2022-10-22T00:52:17;100603.94;;;10.87;68.72
71299;BME280;59083;47.974;21.722;2022-10-22T00:55:19;100614.94;;;10.84;68.74
71299;BME280;59083;47.974;21.722;2022-10-22T00:58:23;100608.69;;;10.77;69.07
71299;BME280;59083;47.974;21.722;2022-10-22T01:01:29;100600.13;;;10.67;69.93
71299;BME280;59083;47.974;21.722;2022-10-22T01:04:30;100589.09;;;10.55;70.49
71299;BME280;59083;47.974;21.722;2022-10-22T01:07:39;100580.38;;;10.47;71.32
71299;BME280;59083;47.974;21.722;2022-10-22T01:10:57;100586.31;;;10.34;71.75
71299;BME280;59083;47.974;21.722;2022-10-22T01:17:40;100583.97;;;10.16;73.28
71299;BME280;59083;47.974;21.722;2022-10-22T01:27:14;100577.81;;;9.93;74.18
71299;BME280;59083;47.974;21.722;2022-10-22T01:30:20;100573.19;;;9.87;74.52
71299;BME280;59083;47.974;21.722;2022-10-22T01:33:22;100572.06;;;9.81;74.86
71299;BME280;59083;47.974;21.722;2022-10-22T01:36:28;100571.31;;;9.73;75.04
71299;BME280;59083;47.974;21.722;2022-10-22T01:39:30;100571.31;;;9.73;75.06
71299;BME280;59083;47.974;21.722;2022-10-22T01:42:31;100565.16;;;9.72;74.84
71299;BME280;59083;47.974;21.722;2022-10-22T01:45:35;100569.16;;;9.68;75.29
71299;BME280;59083;47.974;21.722;2022-10-22T01:55:56;100547.16;;;9.51;76.07
71299;BME280;59083;47.974;21.722;2022-10-22T02:02:24;100553.28;;;9.60;75.34
71299;BME280;59083;47.974;21.722;2022-10-22T02:08:34;100561.50;;;9.50;75.85
71299;BME280;59083;47.974;21.722;2022-10-22T02:11:36;100559.53;;;9.44;76.62
71299;BME280;59083;47.974;21.722;2022-10-22T02:14:40;100565.50;;;9.46;76.58
71299;BME280;59083;47.974;21.722;2022-10-22T02:17:45;100562.19;;;9.44;76.87
71299;BME280;59083;47.974;21.722;2022-10-22T02:20:47;100560.88;;;9.40;76.73
71299;BME280;59083;47.974;21.722;2022-10-22T02:23:49;100563.22;;;9.35;77.31
71299;BME280;59083;47.974;21.722;2022-10-22T02:30:20;100572.87;;;9.36;77.40
71299;BME280;59083;47.974;21.722;2022-10-22T02:33:26;100568.22;;;9.38;77.13
71299;BME280;59083;47.974;21.722;2022-10-22T02:36:28;100573.16;;;9.41;77.44
71299;BME280;59083;47.974;21.722;2022-10-22T02:39:30;100581.97;;;9.42;77.43
71299;BME280;59083;47.974;21.722;2022-10-22T02:42:33;100578.03;;;9.38;77.61
71299;BME280;59083;47.974;21.722;2022-10-22T02:45:34;100573.88;;;9.35;78.08
71299;BME280;59083;47.974;21.722;2022-10-22T02:48:36;100571.03;;;9.37;77.87
71299;BME280;59083;47.974;21.722;2022-10-22T02:51:37;100564.59;;;9.31;78.02
71299;BME280;59083;47.974;21.722;2022-10-22T02:54:39;100560.28;;;9.30;77.79
71299;BME280;59083;47.974;21.722;2022-10-22T02:57:40;100554.81;;;9.24;78.08
71299;BME280;59083;47.974;21.722;2022-10-22T03:00:41;100558.31;;;9.24;78.59
71299;BME280;59083;47.974;21.722;2022-10-22T03:03:43;100558.84;;;9.20;78.60
71299;BME280;59083;47.974;21.722;2022-10-22T03:06:44;100553.38;;;9.13;78.53
71299;BME280;59083;47.974;21.722;2022-10-22T03:09:48;100546.41;;;9.12;79.13
71299;BME280;59083;47.974;21.722;2022-10-22T03:12:49;100553.75;;;9.10;79.02
71299;BME280;59083;47.974;21.722;2022-10-22T03:15:50;100564.72;;;9.07;79.37
71299;BME280;59083;47.974;21.722;2022-10-22T03:18:52;100556.09;;;9.05;79.46
71299;BME280;59083;47.974;21.722;2022-10-22T03:21:56;100552.41;;;9.06;79.31
71299;BME280;59083;47.974;21.722;2022-10-22T03:25:03;100561.41;;;9.05;79.16
71299;BME280;59083;47.974;21.722;2022-10-22T03:28:09;100569.03;;;9.08;79.39
71299;BME280;59083;47.974;21.722;2022-10-22T03:31:14;100573.34;;;9.09;79.15
71299;BME280;59083;47.974;21.722;2022-10-22T03:34:15;100576.97;;;9.16;78.94
71299;BME280;59083;47.974;21.722;2022-10-22T03:37:16;100571.97;;;9.21;78.86
71299;BME280;59083;47.974;21.722;2022-10-22T03:40:18;100571.59;;;9.24;79.00
71299;BME280;59083;47.974;21.722;2022-10-22T03:43:20;100574.56;;;9.29;78.82
71299;BME280;59083;47.974;21.722;2022-10-22T03:46:21;100574.22;;;9.32;78.63
71299;BME280;59083;47.974;21.722;2022-10-22T03:49:22;100568.75;;;9.34;78.34
71299;BME280;59083;47.974;21.722;2022-10-22T03:52:23;100565.87;;;9.35;78.10
71299;BME280;59083;47.974;21.722;2022-10-22T03:55:25;100556.25;;;9.34;78.13
71299;BME280;59083;47.974;21.722;2022-10-22T03:58:26;100565.59;;;9.30;78.24
71299;BME280;59083;47.974;21.722;2022-10-22T04:01:28;100558.59;;;9.29;78.48
71299;BME280;59083;47.974;21.722;2022-10-22T04:04:30;100553.66;;;9.26;78.51
71299;BME280;59083;47.974;21.722;2022-10-22T04:07:31;100549.03;;;9.20;78.79
71299;BME280;59083;47.974;21.722;2022-10-22T04:10:33;100541.38;;;9.17;78.80
71299;BME280;59083;47.974;21.722;2022-10-22T04:13:34;100527.50;;;9.07;79.11
71299;BME280;59083;47.974;21.722;2022-10-22T04:16:35;100528.19;;;9.01;79.69
71299;BME280;59083;47.974;21.722;2022-10-22T04:19:36;100524.87;;;8.99;79.79
71299;BME280;59083;47.974;21.722;2022-10-22T04:22:38;100528.03;;;8.94;79.77
71299;BME280;59083;47.974;21.722;2022-10-22T04:25:39;100527.94;;;8.88;80.04
71299;BME280;59083;47.974;21.722;2022-10-22T04:28:41;100524.97;;;8.83;80.22
71299;BME280;59083;47.974;21.722;2022-10-22T04:31:42;100519.66;;;8.83;80.11
71299;BME280;59083;47.974;21.722;2022-10-22T04:34:44;100515.63;;;8.87;79.95
71299;BME280;59083;47.974;21.722;2022-10-22T04:37:45;100524.59;;;8.86;80.00
71299;BME280;59083;47.974;21.722;2022-10-22T04:40:46;100520.59;;;8.90;79.61
71299;BME280;59083;47.974;21.722;2022-10-22T04:43:48;100530.53;;;8.96;79.08
71299;BME280;59083;47.974;21.722;2022-10-22T04:46:49;100533.84;;;8.98;79.53
71299;BME280;59083;47.974;21.722;2022-10-22T04:49:50;100537.50;;;9.05;78.90
71299;BME280;59083;47.974;21.722;2022-10-22T04:52:52;100544.28;;;9.07;78.66
71299;BME280;59083;47.974;21.722;2022-10-22T04:55:53;100537.12;;;9.08;78.55
71299;BME280;59083;47.974;21.722;2022-10-22T04:58:57;100538.63;;;9.10;78.45
71299;BME280;59083;47.974;21.722;2022-10-22T05:01:59;100533.16;;;9.04;78.70
71299;BME280;59083;47.974;21.722;2022-10-22T05:05:01;100534.31;;;9.01;78.77
71299;BME280;59083;47.974;21.722;2022-10-22T05:08:02;100537.50;;;8.97;79.09
71299;BME280;59083;47.974;21.722;2022-10-22T05:14:12;100534.88;;;8.89;79.32
71299;BME280;59083;47.974;21.722;2022-10-22T05:17:13;100536.53;;;8.90;79.81
71299;BME280;59083;47.974;21.722;2022-10-22T05:20:14;100536.75;;;8.88;79.82
71299;BME280;59083;47.974;21.722;2022-10-22T05:23:15;100534.56;;;8.92;79.72
71299;BME280;59083;47.974;21.722;2022-10-22T05:26:18;100523.56;;;8.95;80.03
71299;BME280;59083;47.974;21.722;2022-10-22T05:29:21;100523.56;;;8.95;79.77
71299;BME280;59083;47.974;21.722;2022-10-22T05:32:22;100524.53;;;9.02;79.63
71299;BME280;59083;47.974;21.722;2022-10-22T05:35:24;100527.50;;;9.07;79.17
71299;BME280;59083;47.974;21.722;2022-10-22T05:38:25;100528.47;;;9.14;78.94
71299;BME280;59083;47.974;21.722;2022-10-22T05:41:27;100521.50;;;9.36;78.06
71299;BME280;59083;47.974;21.722;2022-10-22T05:44:28;100520.09;;;9.71;76.35
71299;BME280;59083;47.974;21.722;2022-10-22T05:47:29;100530.12;;;10.06;75.27
71299;BME280;59083;47.974;21.722;2022-10-22T05:50:31;100541.31;;;10.24;74.11
71299;BME280;59083;47.974;21.722;2022-10-22T05:53:33;100540.28;;;10.25;73.94
71299;BME280;59083;47.974;21.722;2022-10-22T05:56:34;100554.25;;;10.27;73.66
71299;BME280;59083;47.974;21.722;2022-10-22T05:59:37;100565.84;;;10.34;73.05
71299;BME280;59083;47.974;21.722;2022-10-22T06:02:38;100578.31;;;10.34;72.88
71299;BME280;59083;47.974;21.722;2022-10-22T06:05:39;100575.09;;;10.24;73.53
71299;BME280;59083;47.974;21.722;2022-10-22T06:08:40;100572.16;;;10.33;73.44
71299;BME280;59083;47.974;21.722;2022-10-22T06:11:42;100570.19;;;10.65;72.51
71299;BME280;59083;47.974;21.722;2022-10-22T06:14:43;100581.88;;;10.93;70.90
71299;BME280;59083;47.974;21.722;2022-10-22T06:17:45;100565.28;;;11.12;70.41
71299;BME280;59083;47.974;21.722;2022-10-22T06:20:47;100578.31;;;11.37;69.02
71299;BME280;59083;47.974;21.722;2022-10-22T06:23:48;100578.94;;;11.39;68.82
71299;BME280;59083;47.974;21.722;2022-10-22T06:26:50;100568.47;;;11.37;68.05
71299;BME280;59083;47.974;21.722;2022-10-22T06:29:51;100576.53;;;11.44;68.28
71299;BME280;59083;47.974;21.722;2022-10-22T06:32:53;100578.22;;;11.66;66.68
71299;BME280;59083;47.974;21.722;2022-10-22T06:35:54;100583.34;;;11.82;65.31
71299;BME280;59083;47.974;21.722;2022-10-22T06:38:55;100593.25;;;11.88;66.01
71299;BME280;59083;47.974;21.722;2022-10-22T06:41:57;100593.00;;;11.83;65.15
71299;BME280;59083;47.974;21.722;2022-10-22T06:44:58;100603.88;;;11.82;66.05
71299;BME280;59083;47.974;21.722;2022-10-22T06:47:59;100598.59;;;11.88;65.92
71299;BME280;59083;47.974;21.722;2022-10-22T06:51:01;100603.13;;;11.88;65.79
71299;BME280;59083;47.974;21.722;2022-10-22T06:54:03;100606.00;;;11.72;67.04
71299;BME280;59083;47.974;21.722;2022-10-22T06:57:04;100605.47;;;11.76;66.46
71299;BME280;59083;47.974;21.722;2022-10-22T07:00:06;100610.03;;;11.82;66.77
71299;BME280;59083;47.974;21.722;2022-10-22T07:03:11;100606.03;;;11.93;66.63
71299;BME280;59083;47.974;21.722;2022-10-22T07:06:13;100610.13;;;11.89;66.31
71299;BME280;59083;47.974;21.722;2022-10-22T07:09:14;100615.88;;;11.92;66.38
71299;BME280;59083;47.974;21.722;2022-10-22T07:12:16;100609.78;;;12.20;65.17
71299;BME280;59083;47.974;21.722;2022-10-22T07:15:17;100601.59;;;12.49;64.54
71299;BME280;59083;47.974;21.722;2022-10-22T07:18:19;100603.47;;;12.55;64.20
71299;BME280;59083;47.974;21.722;2022-10-22T07:21:20;100589.22;;;12.76;63.24
71299;BME280;59083;47.974;21.722;2022-10-22T07:24:22;100584.12;;;12.88;62.46
71299;BME280;59083;47.974;21.722;2022-10-22T07:27:23;100571.97;;;13.13;63.15
71299;BME280;59083;47.974;21.722;2022-10-22T07:30:25;100585.47;;;13.05;62.44
71299;BME280;59083;47.974;21.722;2022-10-22T07:33:26;100586.81;;;13.15;62.93
71299;BME280;59083;47.974;21.722;2022-10-22T07:36:27;100577.69;;;13.10;62.66
71299;BME280;59083;47.974;21.722;2022-10-22T07:39:29;100583.06;;;13.10;62.52
71299;BME280;59083;47.974;21.722;2022-10-22T07:42:30;100588.41;;;13.10;61.98
71299;BME280;59083;47.974;21.722;2022-10-22T07:45:31;100588.94;;;12.99;62.58
71299;BME280;59083;47.974;21.722;2022-10-22T07:48:34;100590.16;;;12.96;63.07
71299;BME280;59083;47.974;21.722;2022-10-22T07:51:35;100601.56;;;13.11;62.70
71299;BME280;59083;47.974;21.722;2022-10-22T07:54:37;100600.38;;;13.14;62.36
71299;BME280;59083;47.974;21.722;2022-10-22T07:57:41;100611.44;;;13.11;62.25
71299;BME280;59083;47.974;21.722;2022-10-22T08:00:42;100624.47;;;13.14;62.87
71299;BME280;59083;47.974;21.722;2022-10-22T08:03:44;100618.28;;;13.13;62.93
71299;BME280;59083;47.974;21.722;2022-10-22T08:06:45;100612.88;;;13.07;63.02
71299;BME280;59083;47.974;21.722;2022-10-22T08:09:46;100612.44;;;13.03;63.51
71299;BME280;59083;47.974;21.722;2022-10-22T08:12:47;100620.19;;;12.92;63.18
71299;BME280;59083;47.974;21.722;2022-10-22T08:15:49;100616.75;;;13.04;63.19
71299;BME280;59083;47.974;21.722;2022-10-22T08:18:50;100625.94;;;13.23;62.75
71299;BME280;59083;47.974;21.722;2022-10-22T08:21:51;100621.00;;;13.20;62.80
71299;BME280;59083;47.974;21.722;2022-10-22T08:24:53;100619.34;;;13.19;63.11
71299;BME280;59083;47.974;21.722;2022-10-22T08:27:54;100627.25;;;13.40;62.54
71299;BME280;59083;47.974;21.722;2022-10-22T08:30:55;100625.62;;;13.46;62.32
71299;BME280;59083;47.974;21.722;2022-10-22T08:33:56;100626.38;;;13.27;62.79
71299;BME280;59083;47.974;21.722;2022-10-22T08:36:58;100625.59;;;13.39;62.57
71299;BME280;59083;47.974;21.722;2022-10-22T08:39:59;100622.38;;;13.57;62.42
71299;BME280;59083;47.974;21.722;2022-10-22T08:49:27;100635.22;;;13.81;61.50
71299;BME280;59083;47.974;21.722;2022-10-22T08:52:31;100633.37;;;13.82;61.74
71299;BME280;59083;47.974;21.722;2022-10-22T08:55:34;100636.47;;;13.92;61.26
71299;BME280;59083;47.974;21.722;2022-10-22T09:01:46;100627.84;;;14.03;62.00
71299;BME280;59083;47.974;21.722;2022-10-22T09:04:57;100622.94;;;14.06;61.60
71299;BME280;59083;47.974;21.722;2022-10-22T09:08:02;100608.88;;;14.24;61.29
71299;BME280;59083;47.974;21.722;2022-10-22T09:14:27;100618.56;;;14.19;60.06
71299;BME280;59083;47.974;21.722;2022-10-22T09:17:48;100614.69;;;14.21;60.46
71299;BME280;59083;47.974;21.722;2022-10-22T09:20:55;100620.06;;;14.47;60.16
71299;BME280;59083;47.974;21.722;2022-10-22T09:24:28;100626.25;;;14.68;60.47
71299;BME280;59083;47.974;21.722;2022-10-22T09:27:31;100630.34;;;14.90;60.09
71299;BME280;59083;47.974;21.722;2022-10-22T09:30:34;100626.56;;;15.11;59.95
71299;BME280;59083;47.974;21.722;2022-10-22T09:33:36;100616.22;;;15.21;60.43
71299;BME280;59083;47.974;21.722;2022-10-22T09:36:37;100622.81;;;15.32;59.84
71299;BME280;59083;47.974;21.722;2022-10-22T09:39:46;100618.84;;;15.41;60.00
71299;BME280;59083;47.974;21.722;2022-10-22T09:42:50;100622.16;;;15.43;60.13
71299;BME280;59083;47.974;21.722;2022-10-22T09:46:00;100633.50;;;15.38;60.20
71299;BME280;59083;47.974;21.722;2022-10-22T09:49:08;100635.97;;;15.40;60.83
71299;BME280;59083;47.974;21.722;2022-10-22T09:52:25;100620.28;;;15.43;60.12
71299;BME280;59083;47.974;21.722;2022-10-22T09:55:28;100612.00;;;15.45;60.27
71299;BME280;59083;47.974;21.722;2022-10-22T09:58:41;100607.63;;;15.57;60.46
71299;BME280;59083;47.974;21.722;2022-10-22T10:01:43;100598.69;;;15.69;59.67
71299;BME280;59083;47.974;21.722;2022-10-22T10:04:52;100594.31;;;15.75;60.71
71299;BME280;59083;47.974;21.722;2022-10-22T10:07:54;100602.78;;;15.72;61.04
71299;BME280;59083;47.974;21.722;2022-10-22T10:11:06;100606.09;;;15.74;61.04
71299;BME280;59083;47.974;21.722;2022-10-22T10:14:41;100610.59;;;15.80;60.48
71299;BME280;59083;47.974;21.722;2022-10-22T10:18:09;100608.91;;;15.86;60.02
71299;BME280;59083;47.974;21.722;2022-10-22T10:21:39;100598.34;;;15.91;60.43
71299;BME280;59083;47.974;21.722;2022-10-22T10:35:33;100586.88;;;16.02;60.72
71299;BME280;59083;47.974;21.722;2022-10-22T10:39:00;100603.63;;;16.04;60.52
71299;BME280;59083;47.974;21.722;2022-10-22T10:48:45;100588.41;;;15.91;61.35
71299;BME280;59083;47.974;21.722;2022-10-22T10:55:28;100595.19;;;16.00;61.29
71299;BME280;59083;47.974;21.722;2022-10-22T10:58:45;100589.81;;;16.00;61.60
71299;BME280;59083;47.974;21.722;2022-10-22T11:05:39;100590.03;;;15.99;62.18
71299;BME280;59083;47.974;21.722;2022-10-22T11:09:04;100575.31;;;16.01;62.25
71299;BME280;59083;47.974;21.722;2022-10-22T11:12:16;100565.94;;;16.10;62.12
71299;BME280;59083;47.974;21.722;2022-10-22T11:15:30;100562.03;;;16.06;62.78
71299;BME280;59083;47.974;21.722;2022-10-22T11:18:40;100558.34;;;16.01;62.71
71299;BME280;59083;47.974;21.722;2022-10-22T11:25:24;100539.31;;;16.02;62.94
71299;BME280;59083;47.974;21.722;2022-10-22T11:28:40;100529.94;;;15.87;63.58
71299;BME280;59083;47.974;21.722;2022-10-22T11:31:44;100527.88;;;15.89;63.73
71299;BME280;59083;47.974;21.722;2022-10-22T11:34:48;100536.38;;;15.79;64.25
71299;BME280;59083;47.974;21.722;2022-10-22T11:37:54;100526.91;;;15.77;64.90
71299;BME280;59083;47.974;21.722;2022-10-22T11:40:59;100531.06;;;15.73;65.13
71299;BME280;59083;47.974;21.722;2022-10-22T11:44:09;100530.69;;;15.69;65.81
71299;BME280;59083;47.974;21.722;2022-10-22T11:47:24;100534.59;;;15.66;65.67
71299;BME280;59083;47.974;21.722;2022-10-22T11:50:46;100535.87;;;15.64;66.23
71299;BME280;59083;47.974;21.722;2022-10-22T11:53:55;100525.13;;;15.64;66.02
71299;BME280;59083;47.974;21.722;2022-10-22T11:57:11;100522.69;;;15.56;66.74
71299;BME280;59083;47.974;21.722;2022-10-22T12:00:46;100520.47;;;15.53;66.86
71299;BME280;59083;47.974;21.722;2022-10-22T12:04:14;100515.47;;;15.50;66.95
71299;BME280;59083;47.974;21.722;2022-10-22T12:07:38;100513.44;;;15.45;67.38
71299;BME280;59083;47.974;21.722;2022-10-22T12:10:54;100512.44;;;15.40;68.11
71299;BME280;59083;47.974;21.722;2022-10-22T12:14:16;100516.16;;;15.39;68.19
71299;BME280;59083;47.974;21.722;2022-10-22T12:17:26;100510.78;;;15.39;68.48
71299;BME280;59083;47.974;21.722;2022-10-22T12:20:28;100499.62;;;15.42;68.36
71299;BME280;59083;47.974;21.722;2022-10-22T12:23:33;100506.03;;;15.41;68.40
71299;BME280;59083;47.974;21.722;2022-10-22T12:26:36;100500.22;;;15.44;68.80
71299;BME280;59083;47.974;21.722;2022-10-22T12:29:37;100509.09;;;15.44;68.89
71299;BME280;59083;47.974;21.722;2022-10-22T12:32:38;100507.87;;;15.40;69.76
71299;BME280;59083;47.974;21.722;2022-10-22T12:35:44;100502.97;;;15.37;70.22
71299;BME280;59083;47.974;21.722;2022-10-22T12:38:45;100492.44;;;15.36;70.38
71299;BME280;59083;47.974;21.722;2022-10-22T12:41:47;100490.16;;;15.32;70.76
71299;BME280;59083;47.974;21.722;2022-10-22T12:44:54;100483.75;;;15.34;70.96
71299;BME280;59083;47.974;21.722;2022-10-22T12:47:58;100492.44;;;15.36;71.11
71299;BME280;59083;47.974;21.722;2022-10-22T12:51:00;100499.50;;;15.30;71.39
71299;BME280;59083;47.974;21.722;2022-10-22T12:54:08;100498.66;;;15.29;71.50
71299;BME280;59083;47.974;21.722;2022-10-22T12:57:12;100498.03;;;15.27;71.27
71299;BME280;59083;47.974;21.722;2022-10-22T13:00:26;100506.53;;;15.24;71.35
71299;BME280;59083;47.974;21.722;2022-10-22T13:03:40;100502.84;;;15.19;71.56
71299;BME280;59083;47.974;21.722;2022-10-22T13:06:44;100493.19;;;15.11;71.78
71299;BME280;59083;47.974;21.722;2022-10-22T13:12:57;100503.94;;;15.05;72.22
71299;BME280;59083;47.974;21.722;2022-10-22T13:19:38;100500.25;;;14.99;72.98
71299;BME280;59083;47.974;21.722;2022-10-22T13:22:51;100499.66;;;14.97;73.16
71299;BME280;59083;47.974;21.722;2022-10-22T13:26:12;100485.44;;;14.90;73.48
71299;BME280;59083;47.974;21.722;2022-10-22T13:29:16;100484.22;;;14.86;73.29
71299;BME280;59083;47.974;21.722;2022-10-22T13:35:26;100485.06;;;14.80;74.00
71299;BME280;59083;47.974;21.722;2022-10-22T13:38:29;100484.87;;;14.75;74.03
71299;BME280;59083;47.974;21.722;2022-10-22T13:41:30;100483.81;;;14.76;74.05
71299;BME280;59083;47.974;21.722;2022-10-22T13:44:32;100476.22;;;14.73;74.01
71299;BME280;59083;47.974;21.722;2022-10-22T13:47:33;100477.69;;;14.69;74.21
71299;BME280;59083;47.974;21.722;2022-10-22T13:50:34;100486.12;;;14.66;74.88
71299;BME280;59083;47.974;21.722;2022-10-22T13:53:35;100485.94;;;14.61;74.96
71299;BME280;59083;47.974;21.722;2022-10-22T13:56:37;100478.94;;;14.60;75.08
71299;BME280;59083;47.974;21.722;2022-10-22T13:59:38;100471.91;;;14.59;74.98
71299;BME280;59083;47.974;21.722;2022-10-22T14:02:40;100471.13;;;14.52;75.16
71299;BME280;59083;47.974;21.722;2022-10-22T14:05:41;100475.03;;;14.49;74.97
71299;BME280;59083;47.974;21.722;2022-10-22T14:08:47;100467.44;;;14.46;75.52
71299;BME280;59083;47.974;21.722;2022-10-22T14:11:50;100457.94;;;14.43;75.30
71299;BME280;59083;47.974;21.722;2022-10-22T14:14:51;100467.22;;;14.41;75.42
71299;BME280;59083;47.974;21.722;2022-10-22T14:17:57;100460.44;;;14.38;75.72
71299;BME280;59083;47.974;21.722;2022-10-22T14:21:02;100464.75;;;14.33;76.28
71299;BME280;59083;47.974;21.722;2022-10-22T14:24:10;100467.03;;;14.29;76.76
71299;BME280;59083;47.974;21.722;2022-10-22T14:27:13;100463.72;;;14.27;76.86
71299;BME280;59083;47.974;21.722;2022-10-22T14:30:17;100452.38;;;14.25;77.15
71299;BME280;59083;47.974;21.722;2022-10-22T14:33:28;100448.47;;;14.21;77.58
71299;BME280;59083;47.974;21.722;2022-10-22T14:36:30;100450.97;;;14.16;77.68
71299;BME280;59083;47.974;21.722;2022-10-22T14:39:31;100452.19;;;14.14;77.41
71299;BME280;59083;47.974;21.722;2022-10-22T14:42:36;100452.00;;;14.15;77.72
71299;BME280;59083;47.974;21.722;2022-10-22T14:45:39;100450.16;;;14.09;77.73
71299;BME280;59083;47.974;21.722;2022-10-22T14:48:41;100453.03;;;14.07;78.15
71299;BME280;59083;47.974;21.722;2022-10-22T14:51:42;100440.25;;;14.03;79.05
71299;BME280;59083;47.974;21.722;2022-10-22T14:54:43;100446.44;;;13.97;79.63
71299;BME280;59083;47.974;21.722;2022-10-22T14:57:45;100437.81;;;13.95;79.74
71299;BME280;59083;47.974;21.722;2022-10-22T15:00:46;100445.22;;;13.93;79.63
71299;BME280;59083;47.974;21.722;2022-10-22T15:03:47;100438.22;;;13.92;80.66
71299;BME280;59083;47.974;21.722;2022-10-22T15:06:49;100438.66;;;13.89;80.85
71299;BME280;59083;47.974;21.722;2022-10-22T15:09:50;100442.75;;;13.85;81.49
71299;BME280;59083;47.974;21.722;2022-10-22T15:12:51;100437.63;;;13.77;82.83
71299;BME280;59083;47.974;21.722;2022-10-22T15:15:52;100439.03;;;13.73;82.85
71299;BME280;59083;47.974;21.722;2022-10-22T15:18:54;100440.28;;;13.63;84.09
71299;BME280;59083;47.974;21.722;2022-10-22T15:21:55;100439.66;;;13.61;84.76
71299;BME280;59083;47.974;21.722;2022-10-22T15:24:57;100443.19;;;13.55;85.93
71299;BME280;59083;47.974;21.722;2022-10-22T15:27:58;100433.50;;;13.54;86.08
71299;BME280;59083;47.974;21.722;2022-10-22T15:30:59;100446.44;;;13.51;86.24
71299;BME280;59083;47.974;21.722;2022-10-22T15:34:01;100444.00;;;13.49;87.19
71299;BME280;59083;47.974;21.722;2022-10-22T15:37:04;100441.72;;;13.46;87.91
71299;BME280;59083;47.974;21.722;2022-10-22T15:40:06;100446.03;;;13.41;88.42
71299;BME280;59083;47.974;21.722;2022-10-22T15:43:09;100452.22;;;13.35;87.87
71299;BME280;59083;47.974;21.722;2022-10-22T15:46:16;100455.06;;;13.33;87.99
71299;BME280;59083;47.974;21.722;2022-10-22T15:49:18;100463.31;;;13.25;88.69
71299;BME280;59083;47.974;21.722;2022-10-22T15:52:19;100458.34;;;13.22;90.96
71299;BME280;59083;47.974;21.722;2022-10-22T15:55:23;100464.75;;;13.21;92.58
71299;BME280;59083;47.974;21.722;2022-10-22T15:58:25;100468.25;;;13.15;93.05
71299;BME280;59083;47.974;21.722;2022-10-22T16:01:26;100467.75;;;13.05;93.12
71299;BME280;59083;47.974;21.722;2022-10-22T16:04:28;100479.66;;;12.96;93.22
71299;BME280;59083;47.974;21.722;2022-10-22T16:07:29;100481.28;;;12.90;95.24
71299;BME280;59083;47.974;21.722;2022-10-22T16:10:31;100484.16;;;12.89;96.23
71299;BME280;59083;47.974;21.722;2022-10-22T16:13:32;100478.59;;;12.83;96.86
71299;BME280;59083;47.974;21.722;2022-10-22T16:16:36;100472.16;;;12.71;96.48
71299;BME280;59083;47.974;21.722;2022-10-22T16:19:39;100496.44;;;12.76;97.36
71299;BME280;59083;47.974;21.722;2022-10-22T16:22:41;100496.03;;;12.73;96.62
71299;BME280;59083;47.974;21.722;2022-10-22T16:25:42;100501.97;;;12.68;97.43
71299;BME280;59083;47.974;21.722;2022-10-22T16:28:44;100504.00;;;12.66;97.50
71299;BME280;59083;47.974;21.722;2022-10-22T16:31:46;100508.75;;;12.64;98.24
71299;BME280;59083;47.974;21.722;2022-10-22T16:34:47;100519.00;;;12.61;98.94
71299;BME280;59083;47.974;21.722;2022-10-22T16:37:48;100514.87;;;12.58;99.70
71299;BME280;59083;47.974;21.722;2022-10-22T16:40:50;100514.25;;;12.56;99.68
71299;BME280;59083;47.974;21.722;2022-10-22T16:43:53;100512.59;;;12.55;100.00
71299;BME280;59083;47.974;21.722;2022-10-22T16:47:00;100512.34;;;12.50;100.00
71299;BME280;59083;47.974;21.722;2022-10-22T16:50:01;100526.75;;;12.49;100.00
71299;BME280;59083;47.974;21.722;2022-10-22T16:53:02;100530.84;;;12.45;100.00
71299;BME280;59083;47.974;21.722;2022-10-22T16:56:07;100535.31;;;12.38;100.00
71299;BME280;59083;47.974;21.722;2022-10-22T16:59:09;100535.06;;;12.33;100.00
71299;BME280;59083;47.974;21.722;2022-10-22T17:02:10;100532.16;;;12.28;100.00
71299;BME280;59083;47.974;21.722;2022-10-22T17:05:12;100535.59;;;12.22;100.00
71299;BME280;59083;47.974;21.722;2022-10-22T17:08:13;100533.53;;;12.17;100.00
71299;BME280;59083;47.974;21.722;2022-10-22T17:11:17;100539.69;;;12.18;100.00
71299;BME280;59083;47.974;21.722;2022-10-22T17:14:19;100534.72;;;12.15;100.00